createdAt,value
2022-08-23T00:02:24.901Z,1.98
2022-08-23T00:05:08.113Z,2.17
2022-08-23T00:07:42.160Z,2.10
2022-08-23T00:10:12.562Z,1.90
2022-08-23T00:12:40.392Z,1.65
2022-08-23T00:15:10.058Z,1.85
2022-08-23T00:17:37.483Z,1.95
2022-08-23T00:20:08.200Z,1.88
2022-08-23T00:22:36.510Z,1.80
2022-08-23T00:25:06.611Z,2.15
2022-08-23T00:27:34.590Z,2.30
2022-08-23T00:30:02.545Z,2.10
2022-08-23T00:32:31.918Z,2.35
2022-08-23T00:35:00.422Z,2.55
2022-08-23T00:37:28.676Z,2.30
2022-08-23T00:39:56.291Z,2.50
2022-08-23T00:42:51.869Z,2.47
2022-08-23T00:48:06.655Z,3.28
2022-08-23T00:50:37.580Z,2.92
2022-08-23T00:53:08.216Z,3.25
2022-08-23T00:55:35.957Z,3.42
2022-08-23T00:58:03.495Z,3.15
2022-08-23T01:00:32.636Z,3.22
2022-08-23T01:03:00.951Z,2.85
2022-08-23T01:05:35.664Z,3.30
2022-08-23T01:08:03.850Z,3.22
2022-08-23T01:10:31.348Z,3.60
2022-08-23T01:13:08.550Z,2.92
2022-08-23T01:15:56.530Z,3.38
2022-08-23T01:18:26.407Z,3.60
2022-08-23T01:21:00.074Z,4.25
2022-08-23T01:23:39.483Z,4.35
2022-08-23T01:26:07.860Z,4.20
2022-08-23T01:28:40.883Z,4.30
2022-08-23T01:31:13.941Z,4.75
2022-08-23T01:33:42.167Z,4.95
2022-08-23T01:36:11.753Z,5.28
2022-08-23T01:38:39.779Z,5.60
2022-08-23T01:41:07.538Z,5.68
2022-08-23T01:43:35.232Z,5.60
2022-08-23T01:46:13.731Z,6.90
2022-08-23T01:48:41.979Z,6.70
2022-08-23T01:51:09.709Z,5.65
2022-08-23T01:53:37.430Z,6.20
2022-08-23T01:56:05.851Z,5.88
2022-08-23T01:58:36.839Z,5.95
2022-08-23T02:01:05.058Z,5.07
2022-08-23T02:03:34.424Z,4.88
2022-08-23T02:06:01.994Z,4.65
2022-08-23T02:08:48.279Z,5.15
2022-08-23T02:11:23.197Z,5.13
2022-08-23T02:13:52.021Z,5.50
2022-08-23T02:16:27.678Z,5.85
2022-08-23T02:18:57.323Z,5.18
2022-08-23T02:21:26.300Z,5.50
2022-08-23T02:23:53.887Z,5.38
2022-08-23T02:26:21.714Z,5.47
2022-08-23T02:28:58.991Z,4.72
2022-08-23T02:31:26.892Z,5.15
2022-08-23T02:33:56.103Z,4.43
2022-08-23T02:36:25.417Z,4.65
2022-08-23T02:38:54.200Z,4.90
2022-08-23T02:41:22.111Z,4.38
2022-08-23T02:43:53.151Z,4.47
2022-08-23T02:46:23.118Z,4.13
2022-08-23T02:48:52.887Z,4.07
2022-08-23T02:51:20.981Z,4.10
2022-08-23T02:53:48.617Z,4.18
2022-08-23T02:56:21.897Z,3.92
2022-08-23T02:58:54.578Z,4.07
2022-08-23T03:01:25.253Z,4.35
2022-08-23T03:03:55.175Z,3.70
2022-08-23T03:06:24.728Z,3.45
2022-08-23T03:08:54.357Z,3.47
2022-08-23T03:11:23.453Z,3.65
2022-08-23T03:13:53.281Z,3.67
2022-08-23T03:16:21.217Z,3.13
2022-08-23T03:18:49.511Z,3.40
2022-08-23T03:21:18.027Z,3.83
2022-08-23T03:23:46.650Z,3.95
2022-08-23T03:26:15.148Z,3.00
2022-08-23T03:28:44.375Z,3.47
2022-08-23T03:31:15.000Z,3.00
2022-08-23T03:34:05.579Z,2.97
2022-08-23T03:36:34.663Z,3.08
2022-08-23T03:39:03.752Z,3.00
2022-08-23T03:41:31.309Z,3.08
2022-08-23T03:43:58.916Z,2.65
2022-08-23T03:46:33.756Z,2.78
2022-08-23T03:49:02.567Z,3.53
2022-08-23T03:51:38.552Z,3.67
2022-08-23T03:54:06.854Z,3.53
2022-08-23T03:56:38.850Z,3.83
2022-08-23T03:59:08.116Z,3.97
2022-08-23T04:01:36.577Z,3.83
2022-08-23T04:04:04.676Z,4.05
2022-08-23T04:06:33.146Z,4.00
2022-08-23T04:09:00.840Z,4.05
2022-08-23T04:11:28.482Z,4.70
2022-08-23T04:14:04.817Z,4.53
2022-08-23T04:16:37.467Z,4.60
2022-08-23T04:19:06.227Z,5.25
2022-08-23T04:21:38.890Z,4.22
2022-08-23T04:24:06.700Z,5.07
2022-08-23T04:26:34.380Z,5.03
2022-08-23T04:29:02.134Z,5.32
2022-08-23T04:31:34.736Z,5.05
2022-08-23T04:34:04.467Z,4.85
2022-08-23T04:36:35.727Z,5.45
2022-08-23T04:39:04.725Z,5.35
2022-08-23T04:41:51.796Z,5.40
2022-08-23T04:44:19.459Z,5.00
2022-08-23T04:46:48.771Z,5.22
2022-08-23T04:49:18.765Z,5.53
2022-08-23T04:51:53.867Z,5.57
2022-08-23T04:54:23.453Z,5.85
2022-08-23T04:57:11.301Z,5.50
2022-08-23T04:59:40.414Z,5.90
2022-08-23T05:02:08.077Z,6.10
2022-08-23T05:04:35.561Z,6.03
2022-08-23T05:07:04.167Z,7.68
2022-08-23T05:09:31.774Z,5.55
2022-08-23T05:11:59.421Z,5.50
2022-08-23T05:14:28.020Z,5.78
2022-08-23T05:16:56.196Z,5.72
2022-08-23T05:19:24.916Z,6.38
2022-08-23T05:21:56.771Z,5.28
2022-08-23T05:24:29.901Z,5.78
2022-08-23T05:26:57.503Z,6.07
2022-08-23T05:29:25.116Z,6.50
2022-08-23T05:31:55.134Z,7.20
2022-08-23T05:34:25.614Z,7.05
2022-08-23T05:36:57.826Z,7.00
2022-08-23T05:39:35.944Z,7.20
2022-08-23T05:42:09.567Z,6.93
2022-08-23T05:44:38.057Z,7.90
2022-08-23T05:47:11.244Z,7.15
2022-08-23T05:49:46.281Z,7.20
2022-08-23T05:52:14.418Z,6.40
2022-08-23T05:54:44.010Z,6.60
2022-08-23T05:57:38.960Z,6.53
2022-08-23T06:00:10.301Z,6.13
2022-08-23T06:02:46.788Z,6.30
2022-08-23T06:05:15.058Z,6.03
2022-08-23T06:07:44.435Z,5.30
2022-08-23T06:10:16.168Z,5.28
2022-08-23T06:12:49.287Z,5.22
2022-08-23T06:15:16.838Z,5.55
2022-08-23T06:17:44.645Z,5.40
2022-08-23T06:20:14.995Z,5.45
2022-08-23T06:23:08.966Z,5.38
2022-08-23T06:25:40.821Z,6.03
2022-08-23T06:28:13.524Z,4.70
2022-08-23T06:30:43.177Z,4.85
2022-08-23T06:33:18.681Z,4.70
2022-08-23T06:35:46.236Z,5.25
2022-08-23T06:38:22.924Z,4.80
2022-08-23T06:41:26.453Z,4.75
2022-08-23T06:44:20.789Z,4.53
2022-08-23T06:46:59.370Z,5.03
2022-08-23T06:49:27.890Z,4.93
2022-08-23T06:51:59.958Z,4.40
2022-08-23T06:54:37.962Z,3.85
2022-08-23T06:57:28.400Z,4.90
2022-08-23T07:00:25.142Z,4.25
2022-08-23T07:03:02.191Z,4.20
2022-08-23T07:06:05.263Z,4.13
2022-08-23T07:08:35.390Z,3.67
2022-08-23T07:11:03.468Z,4.07
2022-08-23T07:13:31.012Z,4.35
2022-08-23T07:15:59.979Z,4.18
2022-08-23T07:18:27.890Z,4.72
2022-08-23T07:21:00.554Z,4.88
2022-08-23T07:23:32.414Z,4.28
2022-08-23T07:26:03.258Z,4.72
2022-08-23T07:28:30.522Z,5.05
2022-08-23T07:31:14.660Z,5.25
2022-08-23T07:33:44.579Z,5.72
2022-08-23T07:36:20.457Z,6.28
2022-08-23T07:38:51.369Z,6.45
2022-08-23T07:41:20.480Z,6.05
2022-08-23T07:43:48.677Z,6.10
2022-08-23T07:46:16.877Z,5.32
2022-08-23T07:48:53.858Z,5.30
2022-08-23T07:51:29.761Z,5.80
2022-08-23T07:53:57.426Z,5.20
2022-08-23T07:56:25.072Z,5.53
2022-08-23T07:59:15.579Z,4.10
2022-08-23T08:02:08.677Z,5.38
2022-08-23T08:04:37.639Z,6.10
2022-08-23T08:07:18.661Z,6.65
2022-08-23T08:09:48.973Z,6.27
2022-08-23T08:12:17.689Z,6.30
2022-08-23T08:14:48.385Z,5.78
2022-08-23T08:17:18.111Z,5.53
2022-08-23T08:20:19.734Z,6.10
2022-08-23T08:22:59.104Z,6.20
2022-08-23T08:25:47.119Z,6.85
2022-08-23T08:28:17.621Z,5.43
2022-08-23T08:30:44.745Z,4.57
2022-08-23T08:33:12.138Z,4.63
2022-08-23T08:35:40.363Z,5.75
2022-08-23T08:38:07.791Z,5.47
2022-08-23T08:40:40.397Z,4.85
2022-08-23T08:43:23.188Z,5.22
2022-08-23T08:46:05.309Z,4.32
2022-08-23T08:48:47.187Z,5.43
2022-08-23T08:51:35.211Z,4.57
2022-08-23T08:54:06.384Z,4.93
2022-08-23T08:56:40.088Z,4.78
2022-08-23T08:59:24.039Z,4.93
2022-08-23T09:01:52.134Z,5.95
2022-08-23T09:04:27.267Z,5.25
2022-08-23T09:07:11.264Z,4.95
2022-08-23T09:09:53.702Z,5.43
2022-08-23T09:12:27.548Z,5.03
2022-08-23T09:15:02.849Z,5.15
2022-08-23T09:17:45.297Z,5.55
2022-08-23T09:20:15.818Z,5.50
2022-08-23T09:22:51.330Z,5.13
2022-08-23T09:25:25.906Z,5.57
2022-08-23T09:28:19.530Z,5.60
2022-08-23T09:30:55.210Z,4.18
2022-08-23T09:33:46.081Z,4.53
2022-08-23T09:36:38.394Z,5.10
2022-08-23T09:39:09.216Z,4.35
2022-08-23T09:41:43.839Z,4.65
2022-08-23T09:44:13.900Z,4.60
2022-08-23T09:46:44.400Z,4.72
2022-08-23T09:49:28.206Z,4.30
2022-08-23T09:52:12.858Z,4.07
2022-08-23T09:55:26.719Z,3.40
2022-08-23T09:57:54.213Z,3.45
2022-08-23T10:00:36.929Z,3.80
2022-08-23T10:03:26.981Z,3.53
2022-08-23T10:06:02.045Z,3.70
2022-08-23T10:08:42.482Z,4.38
2022-08-23T10:11:24.206Z,4.25
2022-08-23T10:13:52.617Z,4.25
2022-08-23T10:16:41.802Z,4.20
2022-08-23T10:19:47.778Z,4.78
2022-08-23T10:22:26.255Z,4.20
2022-08-23T10:25:20.804Z,3.88
2022-08-23T10:28:19.894Z,3.78
2022-08-23T10:31:04.813Z,3.53
2022-08-23T10:33:57.257Z,3.55
2022-08-23T10:36:55.807Z,3.50
2022-08-23T10:39:28.759Z,4.13
2022-08-23T10:42:06.612Z,4.28
2022-08-23T10:44:46.429Z,3.65
2022-08-23T10:47:25.125Z,3.00
2022-08-23T10:49:54.447Z,2.10
2022-08-23T10:52:51.909Z,2.25
2022-08-23T10:55:36.065Z,2.38
2022-08-23T10:58:07.856Z,2.63
2022-08-23T11:00:37.850Z,2.50
2022-08-23T11:03:29.594Z,1.80
2022-08-23T11:06:30.028Z,1.80
2022-08-23T11:09:04.420Z,2.17
2022-08-23T11:11:48.873Z,2.92
2022-08-23T11:17:04.351Z,2.88
2022-08-23T11:19:57.987Z,2.97
2022-08-23T11:22:32.692Z,2.83
2022-08-23T11:25:06.050Z,2.90
2022-08-23T11:27:41.819Z,2.67
2022-08-23T11:30:32.292Z,2.80
2022-08-23T11:33:21.170Z,2.85
2022-08-23T11:35:55.689Z,2.97
2022-08-23T11:38:42.153Z,3.40
2022-08-23T11:41:52.883Z,4.03
2022-08-23T11:44:42.096Z,3.80
2022-08-23T11:47:13.018Z,3.83
2022-08-23T11:50:08.283Z,4.05
2022-08-23T11:52:47.425Z,3.60
2022-08-23T11:55:34.821Z,3.55
2022-08-23T11:58:21.148Z,4.45
2022-08-23T12:00:53.400Z,5.10
2022-08-23T12:03:51.726Z,5.57
2022-08-23T12:06:19.769Z,5.18
2022-08-23T12:08:49.071Z,5.55
2022-08-23T12:11:18.836Z,5.70
2022-08-23T12:13:50.816Z,6.20
2022-08-23T12:16:21.490Z,6.47
2022-08-23T12:18:55.562Z,6.40
2022-08-23T12:21:41.942Z,6.55
2022-08-23T12:24:32.879Z,6.50
2022-08-23T12:27:22.175Z,6.22
2022-08-23T12:30:25.045Z,6.97
2022-08-23T12:33:14.944Z,6.00
2022-08-23T12:36:03.859Z,5.57
2022-08-23T12:39:08.659Z,4.55
2022-08-23T12:42:06.923Z,3.55
2022-08-23T12:44:34.579Z,3.00
2022-08-23T12:47:17.019Z,2.53
2022-08-23T12:50:18.248Z,2.33
2022-08-23T12:53:00.533Z,2.10
2022-08-23T12:55:38.290Z,1.75
2022-08-23T12:58:07.211Z,1.77
2022-08-23T13:00:51.521Z,1.73
2022-08-23T13:05:54.221Z,1.70
2022-08-23T13:08:34.359Z,2.65
2022-08-23T13:11:08.086Z,1.95
2022-08-23T13:13:39.631Z,2.13
2022-08-23T13:16:27.257Z,1.80
2022-08-23T13:18:56.402Z,2.47
2022-08-23T13:21:23.599Z,1.67
2022-08-23T13:24:02.188Z,2.40
2022-08-23T13:26:36.787Z,1.60
2022-08-23T13:29:16.052Z,1.65
2022-08-23T13:32:04.152Z,1.42
2022-08-23T13:34:35.782Z,1.50
2022-08-23T13:37:24.766Z,1.30
2022-08-23T13:39:56.432Z,1.35
2022-08-23T13:42:52.806Z,1.50
2022-08-23T13:45:29.259Z,1.55
2022-08-23T13:48:14.016Z,1.65
2022-08-23T13:50:41.832Z,1.00
2022-08-23T13:53:17.217Z,1.10
2022-08-23T13:55:55.972Z,1.17
2022-08-23T13:58:32.379Z,1.35
2022-08-23T14:01:01.752Z,2.22
2022-08-23T14:03:31.464Z,1.90
2022-08-23T14:05:58.763Z,1.67
2022-08-23T14:08:26.211Z,1.85
2022-08-23T14:10:53.486Z,1.40
2022-08-23T14:13:24.384Z,1.55
2022-08-23T14:15:56.602Z,1.77
2022-08-23T14:18:26.367Z,2.67
2022-08-23T14:20:53.758Z,2.30
2022-08-23T14:23:20.927Z,2.80
2022-08-23T14:25:51.121Z,2.47
2022-08-23T14:28:18.892Z,3.50
2022-08-23T14:30:48.019Z,2.30
2022-08-23T14:33:15.270Z,2.03
2022-08-23T14:35:42.607Z,2.10
2022-08-23T14:38:10.855Z,2.08
2022-08-23T14:40:38.034Z,2.20
2022-08-23T14:43:05.801Z,2.40
2022-08-23T14:45:33.028Z,1.80
2022-08-23T14:48:00.358Z,1.50
2022-08-23T14:50:28.747Z,1.38
2022-08-23T14:52:56.166Z,1.20
2022-08-23T14:55:25.093Z,1.40
2022-08-23T14:57:52.673Z,1.65
2022-08-23T15:00:20.114Z,1.35
2022-08-23T15:02:48.827Z,1.35
2022-08-23T15:05:16.830Z,1.25
2022-08-23T15:07:44.293Z,1.25
2022-08-23T15:10:49.943Z,2.80
2022-08-23T15:13:15.581Z,2.13
2022-08-23T15:15:49.164Z,1.67
2022-08-23T15:18:17.157Z,1.58
2022-08-23T15:20:45.692Z,1.58
2022-08-23T15:23:13.549Z,1.30
2022-08-23T15:25:43.786Z,1.40
2022-08-23T15:28:14.331Z,1.60
2022-08-23T15:30:42.663Z,1.42
2022-08-23T15:33:10.688Z,1.42
2022-08-23T15:35:42.588Z,1.13
2022-08-23T15:38:13.953Z,1.20
2022-08-23T15:40:41.273Z,1.00
2022-08-23T15:43:08.565Z,2.10
2022-08-23T15:45:36.906Z,1.55
2022-08-23T15:48:15.488Z,1.80
2022-08-23T15:50:46.048Z,1.70
2022-08-23T15:53:13.557Z,1.20
2022-08-23T15:55:42.276Z,1.40
2022-08-23T15:58:24.959Z,1.40
2022-08-23T16:00:53.306Z,1.40
2022-08-23T16:03:21.807Z,1.23
2022-08-23T16:05:52.047Z,1.40
2022-08-23T16:08:29.434Z,1.40
2022-08-23T16:10:57.608Z,1.20
2022-08-23T16:13:25.901Z,1.40
2022-08-23T16:15:53.607Z,1.25
2022-08-23T16:18:20.965Z,2.00
2022-08-23T16:20:48.176Z,1.52
2022-08-23T16:23:15.338Z,1.58
2022-08-23T16:25:43.232Z,1.58
2022-08-23T16:28:10.523Z,1.38
2022-08-23T16:30:37.826Z,1.60
2022-08-23T16:33:05.056Z,2.00
2022-08-23T16:35:32.193Z,1.50
2022-08-23T16:37:59.502Z,1.80
2022-08-23T16:40:27.065Z,1.50
2022-08-23T16:42:56.317Z,2.47
2022-08-23T16:45:25.721Z,2.00
2022-08-23T16:47:54.020Z,1.90
2022-08-23T16:50:21.331Z,1.70
2022-08-23T16:52:48.476Z,4.43
2022-08-23T16:55:15.669Z,14.57
2022-08-23T16:57:42.996Z,17.17
2022-08-23T17:00:13.056Z,8.55
2022-08-23T17:02:42.692Z,9.80
2022-08-23T17:05:13.252Z,11.00
2022-08-23T17:07:40.440Z,8.10
2022-08-23T17:10:10.049Z,7.15
2022-08-23T17:12:40.503Z,5.65
2022-08-23T17:15:11.041Z,14.35
2022-08-23T17:17:38.315Z,10.23
2022-08-23T17:20:07.377Z,6.95
2022-08-23T17:22:34.794Z,5.43
2022-08-23T17:25:04.633Z,5.60
2022-08-23T17:27:32.041Z,6.00
2022-08-23T17:29:59.466Z,4.10
2022-08-23T17:32:27.973Z,3.88
2022-08-23T17:34:55.164Z,3.67
2022-08-23T17:37:23.195Z,3.22
2022-08-23T17:39:51.004Z,2.58
2022-08-23T17:42:21.399Z,2.88
2022-08-23T17:44:48.846Z,3.80
2022-08-23T17:47:17.675Z,4.20
2022-08-23T17:49:46.776Z,3.47
2022-08-23T17:52:14.185Z,3.65
2022-08-23T17:54:42.818Z,3.20
2022-08-23T17:57:11.229Z,1.77
2022-08-23T17:59:38.626Z,1.33
2022-08-23T18:02:06.661Z,1.85
2022-08-23T18:04:36.554Z,1.30
2022-08-23T18:07:04.902Z,1.20
2022-08-23T18:09:32.097Z,0.90
2022-08-23T18:11:59.352Z,1.20
2022-08-23T18:14:27.916Z,1.17
2022-08-23T18:16:56.693Z,0.93
2022-08-23T18:19:24.433Z,2.55
2022-08-23T18:21:51.974Z,3.88
2022-08-23T18:24:19.459Z,2.03
2022-08-23T18:27:05.777Z,1.50
2022-08-23T18:29:36.127Z,1.20
2022-08-23T18:32:07.097Z,2.30
2022-08-23T18:34:35.674Z,7.20
2022-08-23T18:37:03.544Z,7.15
2022-08-23T18:39:32.406Z,6.18
2022-08-23T18:42:04.676Z,1.98
2022-08-23T18:44:32.412Z,1.70
2022-08-23T18:47:02.214Z,1.60
2022-08-23T18:49:29.681Z,6.72
2022-08-23T18:51:56.846Z,1.80
2022-08-23T18:54:24.231Z,7.28
2022-08-23T18:56:51.635Z,2.15
2022-08-23T18:59:19.335Z,1.80
2022-08-23T19:01:47.141Z,1.50
2022-08-23T19:04:15.030Z,1.10
2022-08-23T19:06:43.406Z,1.20
2022-08-23T19:09:13.019Z,1.20
2022-08-23T19:11:42.497Z,1.52
2022-08-23T19:14:11.392Z,1.33
2022-08-23T19:16:42.620Z,1.17
2022-08-23T19:19:13.429Z,1.20
2022-08-23T19:21:40.619Z,1.38
2022-08-23T19:24:07.828Z,1.40
2022-08-23T19:26:36.198Z,0.98
2022-08-23T19:29:07.584Z,1.38
2022-08-23T19:31:41.079Z,1.30
2022-08-23T19:34:10.149Z,1.10
2022-08-23T19:36:46.387Z,1.10
2022-08-23T19:39:14.784Z,1.25
2022-08-23T19:41:42.106Z,1.55
2022-08-23T19:44:09.825Z,0.90
2022-08-23T19:46:42.106Z,1.30
2022-08-23T19:49:11.691Z,1.23
2022-08-23T19:51:39.918Z,1.55
2022-08-23T19:54:11.586Z,1.13
2022-08-23T19:56:44.587Z,1.45
2022-08-23T19:59:15.183Z,1.20
2022-08-23T20:01:43.159Z,1.30
2022-08-23T20:04:10.853Z,1.45
2022-08-23T20:06:38.367Z,1.40
2022-08-23T20:09:07.466Z,1.67
2022-08-23T20:11:35.046Z,1.52
2022-08-23T20:14:04.839Z,1.50
2022-08-23T20:16:32.970Z,1.50
2022-08-23T20:19:01.169Z,1.20
2022-08-23T20:21:28.808Z,1.88
2022-08-23T20:24:03.482Z,1.83
2022-08-23T20:26:34.589Z,1.63
2022-08-23T20:29:04.385Z,1.60
2022-08-23T20:31:35.226Z,1.58
2022-08-23T20:34:04.892Z,1.33
2022-08-23T20:36:33.539Z,1.70
2022-08-23T20:39:01.884Z,1.70
2022-08-23T20:41:31.329Z,1.60
2022-08-23T20:43:59.233Z,1.75
2022-08-23T20:46:27.207Z,1.50
2022-08-23T20:48:57.450Z,1.67
2022-08-23T20:51:25.898Z,1.70
2022-08-23T20:53:53.580Z,1.60
2022-08-23T20:56:21.417Z,1.83
2022-08-23T20:58:49.258Z,2.28
2022-08-23T21:01:17.529Z,1.95
2022-08-23T21:03:45.515Z,1.58
2022-08-23T21:06:20.011Z,1.90
2022-08-23T21:08:53.582Z,1.63
2022-08-23T21:11:22.027Z,1.63
2022-08-23T21:13:49.915Z,1.95
2022-08-23T21:16:18.109Z,1.80
2022-08-23T21:18:45.948Z,2.15
2022-08-23T21:21:13.593Z,2.00
2022-08-23T21:23:41.214Z,2.13
2022-08-23T21:26:09.054Z,1.90
2022-08-23T21:28:37.885Z,1.73
2022-08-23T21:31:06.984Z,1.50
2022-08-23T21:33:39.345Z,1.70
2022-08-23T21:36:08.058Z,1.90
2022-08-23T21:38:36.120Z,2.20
2022-08-23T21:41:05.153Z,2.03
2022-08-23T21:43:33.569Z,2.45
2022-08-23T21:46:01.270Z,6.35
2022-08-23T21:48:29.663Z,13.80
2022-08-23T21:50:58.680Z,19.33
2022-08-23T21:53:26.584Z,11.68
2022-08-23T21:55:54.048Z,7.63
2022-08-23T21:58:21.860Z,4.50
2022-08-23T22:00:49.456Z,4.28
2022-08-23T22:03:17.051Z,3.38
2022-08-23T22:05:45.603Z,2.08
2022-08-23T22:08:14.316Z,2.03
2022-08-23T22:10:52.183Z,1.90
2022-08-23T22:13:26.646Z,2.03
2022-08-23T22:15:54.789Z,1.88
2022-08-23T22:18:22.442Z,2.15
2022-08-23T22:20:50.152Z,1.80
2022-08-23T22:23:17.698Z,1.80
2022-08-23T22:25:45.243Z,2.05
2022-08-23T22:28:12.810Z,2.28
2022-08-23T22:30:42.536Z,2.45
2022-08-23T22:33:11.229Z,2.30
2022-08-23T22:35:39.430Z,2.20
2022-08-23T22:38:14.802Z,2.33
2022-08-23T22:40:49.972Z,2.13
2022-08-23T22:43:17.979Z,1.90
2022-08-23T22:46:02.694Z,2.47
2022-08-23T22:51:06.330Z,2.35
2022-08-23T22:53:34.705Z,2.50
2022-08-23T22:56:02.241Z,2.00
2022-08-23T22:58:29.927Z,2.50
2022-08-23T23:00:57.564Z,2.80
2022-08-23T23:03:25.127Z,2.20
2022-08-23T23:05:52.649Z,2.60
2022-08-23T23:08:29.405Z,2.03
2022-08-23T23:11:05.643Z,2.58
2022-08-23T23:13:33.273Z,2.10
2022-08-23T23:16:05.124Z,2.10
2022-08-23T23:18:33.531Z,2.58
2022-08-23T23:21:02.182Z,2.22
2022-08-23T23:23:30.552Z,1.98
2022-08-23T23:25:58.633Z,2.30
2022-08-23T23:28:26.159Z,2.13
2022-08-23T23:30:55.183Z,2.33
2022-08-23T23:33:23.860Z,2.30
2022-08-23T23:35:51.845Z,2.40
2022-08-23T23:38:19.597Z,2.33
2022-08-23T23:40:47.669Z,2.40
2022-08-23T23:43:15.358Z,2.42
2022-08-23T23:45:43.049Z,2.38
2022-08-23T23:48:11.212Z,2.10
2022-08-23T23:50:46.710Z,2.42
2022-08-23T23:53:15.703Z,3.15
2022-08-23T23:55:43.580Z,2.55
2022-08-23T23:58:11.693Z,2.42
